Portada
METAR-TAF:

METAR-TAF

Aeroports :

Juneau, Alaska, Estats Units d'Amèrica

latitud: 58-21-17N, longitud: 134-34-34W, altitud: 6 m

Observació

L'informe es va fer fa 30 minuts, a les 20:53 UTC
Vent 7 kt del Oest
Temperatura 5°C
Humitat 75%
Pressió 1007 hPa
Visibilitat: 16.1 km
Escasses núvols a una alçada de 1100 ft
Cel ennuvolat a una alçada de 17000 ft

METAR: PAJN 042053Z 26007KT 10SM FEW011 BKN170 05/01 A2975 RMK AO2 SLP075 T00500011 56003

Hora: 12:23 (21:23 UTC)

Pronòstic

L'informe es va fer fa 4 hores i 0 minuts, a les 17:23 UTC
Pronòstic vàlid del 04 a les 18 UTC al 05 a les 18 UTC
Vent 7 kt del Est
Visibilitat: 10 km
Núvols disperses a una alçada de 5000 ft
A partir de les 05 a les 0600 UTC
Vent 7 kt del Sud-Est
Visibilitat: 10 km
Núvols disperses a una alçada de 3000 ft
Cel cobert a una alçada de 5000 ft
xàfecs en les proximitats

TAF: PAJN 041723Z 0418/0518 09007KT P6SM SCT050 FM050600 13007KT P6SM VCSH SCT030 OVC050

Observacions i pronòstics meteorològics de més de 4000 aeroports (METAR i TAF).

Les estacions disponibles són els punts grocs i vermells al mapa.

Posi el ratolí al punt desitjat per veure el nom de l'estació.

Feu clic per veure les observacions i els pronòstics meteorològics.

Per canviar el mapa: feu clic els botons verds amb una creu de color negre per apropar; al botó verd amb un guió per allunyar la imatge; o en les fletxes verdes per a mapes adjacents.


METAR-TAF: